createdAt,value
2022-08-05T00:00:20.033Z,4.53
2022-08-05T00:02:50.998Z,4.10
2022-08-05T00:06:01.903Z,4.18
2022-08-05T00:08:32.460Z,4.10
2022-08-05T00:11:01.735Z,4.50
2022-08-05T00:13:39.175Z,5.50
2022-08-05T00:16:10.871Z,4.50
2022-08-05T00:18:40.604Z,5.45
2022-08-05T00:21:09.437Z,6.57
2022-08-05T00:23:45.616Z,6.80
2022-08-05T00:26:17.852Z,6.28
2022-08-05T00:28:47.457Z,6.57
2022-08-05T00:31:16.534Z,6.32
2022-08-05T00:34:54.739Z,5.65
2022-08-05T00:37:11.269Z,5.88
2022-08-05T00:39:58.566Z,6.45
2022-08-05T00:42:37.488Z,6.60
2022-08-05T00:45:11.481Z,6.32
2022-08-05T00:47:56.706Z,7.45
2022-08-05T00:50:33.070Z,6.72
2022-08-05T00:52:59.986Z,6.65
2022-08-05T00:55:42.624Z,6.57
2022-08-05T00:58:17.016Z,5.38
2022-08-05T01:00:47.497Z,6.05
2022-08-05T01:03:22.762Z,5.43
2022-08-05T01:05:54.514Z,6.20
2022-08-05T01:08:41.365Z,6.47
2022-08-05T01:11:36.672Z,5.53
2022-08-05T01:14:27.726Z,7.65
2022-08-05T01:17:09.709Z,5.50
2022-08-05T01:20:33.070Z,4.90
2022-08-05T01:23:24.464Z,5.20
2022-08-05T01:26:13.310Z,5.80
2022-08-05T01:28:57.654Z,5.78
2022-08-05T01:31:48.912Z,5.82
2022-08-05T01:34:31.527Z,5.95
2022-08-05T01:37:18.078Z,6.70
2022-08-05T01:39:59.171Z,6.00
2022-08-05T01:42:31.653Z,5.43
2022-08-05T01:45:04.460Z,5.85
2022-08-05T01:47:43.368Z,6.35
2022-08-05T01:50:29.688Z,6.10
2022-08-05T01:53:04.538Z,5.63
2022-08-05T01:55:36.131Z,6.20
2022-08-05T01:58:29.620Z,4.88
2022-08-05T02:00:58.174Z,5.15
2022-08-05T02:03:34.267Z,8.80
2022-08-05T02:06:33.603Z,6.30
2022-08-05T02:08:58.457Z,5.43
2022-08-05T02:11:33.129Z,4.90
2022-08-05T02:14:15.634Z,5.18
2022-08-05T02:16:54.478Z,5.65
2022-08-05T02:19:35.142Z,6.63
2022-08-05T02:22:41.883Z,6.07
2022-08-05T02:25:18.423Z,6.05
2022-08-05T02:27:58.263Z,6.10
2022-08-05T02:30:30.916Z,5.65
2022-08-05T02:33:00.312Z,5.53
2022-08-05T02:35:37.399Z,5.47
2022-08-05T02:38:09.408Z,5.30
2022-08-05T02:40:41.318Z,5.53
2022-08-05T02:43:13.142Z,6.28
2022-08-05T02:45:52.538Z,5.95
2022-08-05T02:48:29.559Z,6.45
2022-08-05T02:51:00.300Z,5.75
2022-08-05T02:53:39.446Z,6.70
2022-08-05T02:56:16.164Z,6.60
2022-08-05T02:58:51.454Z,4.90
2022-08-05T03:01:24.918Z,6.35
2022-08-05T03:04:03.181Z,6.95
2022-08-05T03:06:55.330Z,6.00
2022-08-05T03:09:27.162Z,5.72
2022-08-05T03:12:04.799Z,7.18
2022-08-05T03:14:31.616Z,5.72
2022-08-05T03:16:59.122Z,6.18
2022-08-05T03:19:33.253Z,6.50
2022-08-05T03:22:05.162Z,6.30
2022-08-05T03:24:47.233Z,5.70
2022-08-05T03:27:18.682Z,6.43
2022-08-05T03:30:07.243Z,6.03
2022-08-05T03:32:32.804Z,5.68
2022-08-05T03:35:00.785Z,5.72
2022-08-05T03:37:31.055Z,6.15
2022-08-05T03:40:12.003Z,6.47
2022-08-05T03:42:41.747Z,5.55
2022-08-05T03:45:21.378Z,6.10
2022-08-05T03:47:50.252Z,7.93
2022-08-05T03:50:17.633Z,7.35
2022-08-05T03:55:07.104Z,6.95
2022-08-05T03:56:05.915Z,8.98
2022-08-05T03:58:33.615Z,8.88
2022-08-05T04:01:02.301Z,8.68
2022-08-05T04:03:38.001Z,9.00
2022-08-05T04:06:06.976Z,9.65
2022-08-05T04:08:37.058Z,8.80
2022-08-05T04:11:08.598Z,10.40
2022-08-05T04:13:50.960Z,10.07
2022-08-05T04:16:24.174Z,11.77
2022-08-05T04:18:54.428Z,10.70
2022-08-05T04:22:04.997Z,11.68
2022-08-05T04:24:18.716Z,12.23
2022-08-05T04:26:49.248Z,11.55
2022-08-05T04:29:16.041Z,11.35
2022-08-05T04:31:42.951Z,14.25
2022-08-05T04:34:31.247Z,11.98
2022-08-05T04:36:57.328Z,13.52
2022-08-05T04:39:24.395Z,12.63
2022-08-05T04:41:54.285Z,11.45
2022-08-05T04:44:29.979Z,12.27
2022-08-05T04:46:58.715Z,11.52
2022-08-05T04:49:39.212Z,12.52
2022-08-05T04:52:13.202Z,11.73
2022-08-05T04:54:40.128Z,13.20
2022-08-05T04:57:06.913Z,12.50
2022-08-05T04:59:36.831Z,11.95
2022-08-05T05:02:36.679Z,12.30
2022-08-05T05:04:53.418Z,10.80
2022-08-05T05:07:31.918Z,12.18
2022-08-05T05:09:59.262Z,12.60
2022-08-05T05:14:56.248Z,12.57
2022-08-05T05:17:24.536Z,12.55
2022-08-05T05:20:11.730Z,14.23
2022-08-05T05:22:40.875Z,13.82
2022-08-05T05:25:16.519Z,12.88
2022-08-05T05:27:53.439Z,11.55
2022-08-05T05:30:29.866Z,13.68
2022-08-05T05:33:03.890Z,12.40
2022-08-05T05:35:44.010Z,13.77
2022-08-05T05:38:13.360Z,12.25
2022-08-05T05:40:49.866Z,13.15
2022-08-05T05:43:54.065Z,13.50
2022-08-05T05:46:15.753Z,12.35
2022-08-05T05:48:44.475Z,12.52
2022-08-05T05:51:15.617Z,13.60
2022-08-05T05:53:54.141Z,12.20
2022-08-05T05:56:33.185Z,12.07
2022-08-05T05:59:07.389Z,13.18
2022-08-05T06:01:38.107Z,13.45
2022-08-05T06:04:12.223Z,14.00
2022-08-05T06:06:42.759Z,13.82
2022-08-05T06:09:17.601Z,15.20
2022-08-05T06:12:01.604Z,13.82
2022-08-05T06:14:30.622Z,15.00
2022-08-05T06:16:58.419Z,14.65
2022-08-05T06:19:35.238Z,13.93
2022-08-05T06:22:04.295Z,13.77
2022-08-05T06:24:36.745Z,13.48
2022-08-05T06:27:04.903Z,12.43
2022-08-05T06:32:25.895Z,12.20
2022-08-05T06:34:57.934Z,12.35
2022-08-05T06:37:56.480Z,13.53
2022-08-05T06:40:18.237Z,14.07
2022-08-05T06:42:48.883Z,15.90
2022-08-05T06:45:21.148Z,13.70
2022-08-05T06:48:44.222Z,13.40
2022-08-05T06:50:35.686Z,12.07
2022-08-05T06:53:04.081Z,11.98
2022-08-05T06:55:38.565Z,11.55
2022-08-05T06:58:29.884Z,10.45
2022-08-05T07:01:00.251Z,9.23
2022-08-05T07:03:32.564Z,10.52
2022-08-05T07:06:05.963Z,11.10
2022-08-05T07:08:47.704Z,11.27
2022-08-05T07:11:22.387Z,11.98
2022-08-05T07:14:15.348Z,12.52
2022-08-05T07:18:00.542Z,13.07
2022-08-05T07:22:28.421Z,12.88
2022-08-05T07:24:58.638Z,13.95
2022-08-05T07:27:27.303Z,11.45
2022-08-05T07:30:27.321Z,12.52
2022-08-05T07:32:53.428Z,11.38
2022-08-05T07:36:01.624Z,12.63
2022-08-05T07:38:07.368Z,11.05
2022-08-05T07:40:39.561Z,11.52
2022-08-05T07:43:20.148Z,11.23
2022-08-05T07:45:57.224Z,10.60
2022-08-05T07:49:02.627Z,11.38
2022-08-05T07:51:23.077Z,11.98
2022-08-05T07:53:59.386Z,11.32
2022-08-05T07:57:00.002Z,13.05
2022-08-05T07:59:15.784Z,11.90
2022-08-05T08:01:52.060Z,10.98
2022-08-05T08:04:37.684Z,12.95
2022-08-05T08:07:07.420Z,13.85
2022-08-05T08:09:35.531Z,13.25
2022-08-05T08:12:14.018Z,11.93
2022-08-05T08:14:46.673Z,11.82
2022-08-05T08:17:21.341Z,12.68
2022-08-05T08:20:21.697Z,11.65
2022-08-05T08:22:36.022Z,11.13
2022-08-05T08:25:03.985Z,12.38
2022-08-05T08:27:45.048Z,12.32
2022-08-05T08:30:29.976Z,12.40
2022-08-05T08:33:13.724Z,12.93
2022-08-05T08:35:53.790Z,12.30
2022-08-05T08:38:35.283Z,11.68
2022-08-05T08:41:07.517Z,11.07
2022-08-05T08:45:20.709Z,12.27
2022-08-05T08:46:26.677Z,11.52
2022-08-05T08:49:07.918Z,11.57
2022-08-05T08:52:03.359Z,12.03
2022-08-05T08:54:34.212Z,11.43
2022-08-05T08:57:11.266Z,12.07
2022-08-05T08:59:41.876Z,11.40
2022-08-05T09:02:16.721Z,12.75
2022-08-05T09:04:58.202Z,13.13
2022-08-05T09:07:40.060Z,11.40
2022-08-05T09:10:20.369Z,10.88
2022-08-05T09:12:51.044Z,11.55
2022-08-05T09:15:20.386Z,10.27
2022-08-05T09:17:49.409Z,11.77
2022-08-05T09:20:36.216Z,11.30
2022-08-05T09:23:37.474Z,12.90
2022-08-05T09:26:15.919Z,11.88
2022-08-05T09:28:49.466Z,11.13
2022-08-05T09:31:22.093Z,11.63
2022-08-05T09:33:56.838Z,12.15
2022-08-05T09:36:27.561Z,10.77
2022-08-05T09:39:18.006Z,9.80
2022-08-05T09:42:08.501Z,11.05
2022-08-05T09:44:44.045Z,11.43
2022-08-05T09:47:15.643Z,11.35
2022-08-05T09:50:00.473Z,10.25
2022-08-05T09:52:35.571Z,9.50
2022-08-05T09:55:57.457Z,8.25
2022-08-05T09:57:54.697Z,8.20
2022-08-05T10:00:26.739Z,7.85
2022-08-05T10:02:58.124Z,8.27
2022-08-05T10:05:28.311Z,9.27
2022-08-05T10:10:53.938Z,7.40
2022-08-05T10:13:47.435Z,8.18
2022-08-05T10:16:41.893Z,8.25
2022-08-05T10:19:23.813Z,6.80
2022-08-05T10:22:08.954Z,6.80
2022-08-05T10:24:39.756Z,7.10
2022-08-05T10:27:07.545Z,6.95
2022-08-05T10:30:06.468Z,8.68
2022-08-05T10:32:53.303Z,7.05
2022-08-05T10:35:11.162Z,6.43
2022-08-05T10:37:44.745Z,6.40
2022-08-05T10:40:34.456Z,6.93
2022-08-05T10:43:51.956Z,6.63
2022-08-05T10:46:23.962Z,7.05
2022-08-05T10:49:02.672Z,6.97
2022-08-05T10:51:59.638Z,7.10
2022-08-05T10:54:57.040Z,6.35
2022-08-05T10:57:31.792Z,5.88
2022-08-05T11:00:24.646Z,6.63
2022-08-05T11:03:25.563Z,5.82
2022-08-05T11:06:15.449Z,6.60
2022-08-05T11:09:18.502Z,6.18
2022-08-05T11:11:54.137Z,7.22
2022-08-05T11:14:57.606Z,6.53
2022-08-05T11:17:59.587Z,6.20
2022-08-05T11:20:41.646Z,6.63
2022-08-05T11:23:33.501Z,6.25
2022-08-05T11:26:29.223Z,5.80
2022-08-05T11:29:06.577Z,6.10
2022-08-05T11:31:58.420Z,5.75
2022-08-05T11:34:50.767Z,5.97
2022-08-05T11:38:30.972Z,6.75
2022-08-05T11:41:01.787Z,6.28
2022-08-05T11:44:04.841Z,5.55
2022-08-05T11:46:58.569Z,6.25
2022-08-05T11:49:35.153Z,5.25
2022-08-05T11:52:11.186Z,5.15
2022-08-05T11:54:40.666Z,5.80
2022-08-05T11:57:24.353Z,4.93
2022-08-05T11:59:53.237Z,5.60
2022-08-05T12:02:31.999Z,6.45
2022-08-05T12:05:06.884Z,7.45
2022-08-05T12:08:03.663Z,6.63
2022-08-05T12:10:42.884Z,7.30
2022-08-05T12:13:14.001Z,6.72
2022-08-05T12:15:49.734Z,6.68
2022-08-05T12:18:32.462Z,6.15
2022-08-05T12:21:21.048Z,6.30
2022-08-05T12:24:06.919Z,7.18
2022-08-05T12:26:37.277Z,6.45
2022-08-05T12:29:09.531Z,6.18
2022-08-05T12:31:42.402Z,7.20
2022-08-05T12:34:14.660Z,7.07
2022-08-05T12:36:48.504Z,6.63
2022-08-05T12:39:15.777Z,6.72
2022-08-05T12:41:43.785Z,5.47
2022-08-05T12:44:14.230Z,7.65
2022-08-05T12:46:45.489Z,6.80
2022-08-05T12:49:15.010Z,6.35
2022-08-05T12:52:12.831Z,6.80
2022-08-05T12:54:37.471Z,7.53
2022-08-05T12:57:09.633Z,6.85
2022-08-05T13:00:08.430Z,7.25
2022-08-05T13:02:32.456Z,6.75
2022-08-05T13:04:59.430Z,6.93
2022-08-05T13:07:55.001Z,6.85
2022-08-05T13:10:20.204Z,6.93
2022-08-05T13:12:57.418Z,6.97
2022-08-05T13:15:42.146Z,7.88
2022-08-05T13:18:20.185Z,7.10
2022-08-05T13:20:49.015Z,6.90
2022-08-05T13:23:22.179Z,6.57
2022-08-05T13:25:59.468Z,7.43
2022-08-05T13:28:28.350Z,7.13
2022-08-05T13:30:55.880Z,7.05
2022-08-05T13:34:24.606Z,6.57
2022-08-05T13:36:13.126Z,7.65
2022-08-05T13:38:42.428Z,6.55
2022-08-05T13:41:11.220Z,8.27
2022-08-05T13:43:45.446Z,7.87
2022-08-05T13:46:44.364Z,7.88
2022-08-05T13:49:10.555Z,6.72
2022-08-05T13:51:40.931Z,8.00
2022-08-05T13:54:15.079Z,8.30
2022-08-05T13:56:45.576Z,6.78
2022-08-05T13:59:19.692Z,6.60
2022-08-05T14:01:58.284Z,7.00
2022-08-05T14:04:54.173Z,6.53
2022-08-05T14:07:59.705Z,6.18
2022-08-05T14:10:28.668Z,7.82
2022-08-05T14:12:57.782Z,7.32
2022-08-05T14:16:09.286Z,6.32
2022-08-05T14:18:23.440Z,7.55
2022-08-05T14:20:55.005Z,7.07
2022-08-05T14:23:24.865Z,7.00
2022-08-05T14:25:58.616Z,6.72
2022-08-05T14:28:30.506Z,6.53
2022-08-05T14:31:01.067Z,7.45
2022-08-05T14:33:32.647Z,7.53
2022-08-05T14:36:15.562Z,6.78
2022-08-05T14:38:47.633Z,6.28
2022-08-05T14:41:17.813Z,7.22
2022-08-05T14:43:59.502Z,5.63
2022-08-05T14:46:30.743Z,6.88
2022-08-05T14:49:06.390Z,5.40
2022-08-05T14:51:34.534Z,6.57
2022-08-05T14:54:27.501Z,6.40
2022-08-05T14:56:48.672Z,6.78
2022-08-05T14:59:16.102Z,6.65
2022-08-05T15:01:48.463Z,6.53
2022-08-05T15:04:17.471Z,7.53
2022-08-05T15:06:49.501Z,6.35
2022-08-05T15:09:51.138Z,6.78
2022-08-05T15:12:05.798Z,6.72
2022-08-05T15:14:34.595Z,5.93
2022-08-05T15:17:44.478Z,6.78
2022-08-05T15:19:57.377Z,7.25
2022-08-05T15:22:27.024Z,6.65
2022-08-05T15:24:55.042Z,6.75
2022-08-05T15:27:21.897Z,6.47
2022-08-05T15:29:56.507Z,6.32
2022-08-05T15:32:27.394Z,7.80
2022-08-05T15:34:55.809Z,6.90
2022-08-05T15:38:33.217Z,6.40
2022-08-05T15:41:00.432Z,8.18
2022-08-05T15:43:09.052Z,7.00
2022-08-05T15:45:45.699Z,6.47
2022-08-05T15:48:14.052Z,6.93
2022-08-05T15:50:43.907Z,5.78
2022-08-05T15:53:13.124Z,7.82
2022-08-05T15:56:02.223Z,6.75
2022-08-05T15:58:36.842Z,7.43
2022-08-05T16:01:16.699Z,7.25
2022-08-05T16:03:48.573Z,6.97
2022-08-05T16:06:19.967Z,6.13
2022-08-05T16:08:50.276Z,6.85
2022-08-05T16:11:18.256Z,5.97
2022-08-05T16:13:48.677Z,7.25
2022-08-05T16:16:25.237Z,6.70
2022-08-05T16:18:53.061Z,7.32
2022-08-05T16:21:20.572Z,7.72
2022-08-05T16:24:07.748Z,7.40
2022-08-05T16:26:58.346Z,7.32
2022-08-05T16:29:26.778Z,6.35
2022-08-05T16:31:58.509Z,7.22
2022-08-05T16:34:26.921Z,7.13
2022-08-05T16:36:55.092Z,8.18
2022-08-05T16:39:22.742Z,7.25
2022-08-05T16:42:14.278Z,7.53
2022-08-05T16:44:44.313Z,6.13
2022-08-05T16:47:28.595Z,7.53
2022-08-05T16:50:05.470Z,6.82
2022-08-05T16:52:32.736Z,7.25
2022-08-05T16:55:00.530Z,6.75
2022-08-05T16:57:50.454Z,7.65
2022-08-05T17:00:14.705Z,7.30
2022-08-05T17:03:15.154Z,7.18
2022-08-05T17:05:53.203Z,7.20
2022-08-05T17:08:36.503Z,6.93
2022-08-05T17:11:12.845Z,7.68
2022-08-05T17:13:44.475Z,6.45
2022-08-05T17:16:29.926Z,8.05
2022-08-05T17:18:59.200Z,8.00
2022-08-05T17:21:26.068Z,7.78
2022-08-05T17:24:28.114Z,7.72
2022-08-05T17:26:55.619Z,7.25
2022-08-05T17:29:33.988Z,8.25
2022-08-05T17:32:11.300Z,7.00
2022-08-05T17:34:38.989Z,7.68
2022-08-05T17:37:29.443Z,7.80
2022-08-05T17:39:55.750Z,6.53
2022-08-05T17:44:57.185Z,7.00
2022-08-05T17:47:23.920Z,7.25
2022-08-05T17:50:00.475Z,7.70
2022-08-05T17:52:32.299Z,6.85
2022-08-05T17:54:59.924Z,7.30
2022-08-05T17:57:27.654Z,7.65
2022-08-05T18:00:05.458Z,6.72
2022-08-05T18:02:35.789Z,6.72
2022-08-05T18:05:07.746Z,6.30
2022-08-05T18:07:41.435Z,6.78
2022-08-05T18:10:11.109Z,6.78
2022-08-05T18:12:39.248Z,6.47
2022-08-05T18:15:06.687Z,9.85
2022-08-05T18:17:59.025Z,11.23
2022-08-05T18:20:29.354Z,6.68
2022-08-05T18:23:00.770Z,7.88
2022-08-05T18:25:39.879Z,8.05
2022-08-05T18:28:16.223Z,6.55
2022-08-05T18:30:51.083Z,7.50
2022-08-05T18:33:22.529Z,7.05
2022-08-05T18:36:04.209Z,7.00
2022-08-05T18:38:37.312Z,5.97
2022-08-05T18:41:55.342Z,6.55
2022-08-05T18:43:53.144Z,7.20
2022-08-05T18:46:20.691Z,7.82
2022-08-05T18:48:52.641Z,8.07
2022-08-05T18:52:04.881Z,7.78
2022-08-05T18:54:31.075Z,8.05
2022-08-05T18:57:01.316Z,8.30
2022-08-05T18:59:43.652Z,7.47
2022-08-05T19:02:38.124Z,7.25
2022-08-05T19:06:05.532Z,8.13
2022-08-05T19:07:52.832Z,8.18
2022-08-05T19:10:27.946Z,7.57
2022-08-05T19:12:56.477Z,8.73
2022-08-05T19:15:58.199Z,8.07
2022-08-05T19:18:20.889Z,8.73
2022-08-05T19:20:53.752Z,8.45
2022-08-05T19:24:04.119Z,9.15
2022-08-05T19:26:09.404Z,7.82
2022-08-05T19:28:42.276Z,8.05
2022-08-05T19:31:17.752Z,8.90
2022-08-05T19:33:55.644Z,9.07
2022-08-05T19:36:29.284Z,8.75
2022-08-05T19:39:00.638Z,8.38
2022-08-05T19:41:58.078Z,8.35
2022-08-05T19:44:16.339Z,8.63
2022-08-05T19:46:43.723Z,10.23
2022-08-05T19:49:17.273Z,10.32
2022-08-05T19:52:09.142Z,10.23
2022-08-05T19:54:34.119Z,11.30
2022-08-05T19:57:06.513Z,12.15
2022-08-05T19:59:55.754Z,11.13
2022-08-05T20:02:23.390Z,10.40
2022-08-05T20:04:50.548Z,10.50
2022-08-05T20:07:46.662Z,11.40
2022-08-05T20:10:13.390Z,9.30
2022-08-05T20:12:46.350Z,10.07
2022-08-05T20:15:48.058Z,10.43
2022-08-05T20:18:10.750Z,10.32
2022-08-05T20:20:55.149Z,10.93
2022-08-05T20:23:23.124Z,12.38
2022-08-05T20:25:52.198Z,11.30
2022-08-05T20:28:19.671Z,10.10
2022-08-05T20:30:46.485Z,10.82
2022-08-05T20:33:16.457Z,10.32
2022-08-05T20:35:45.317Z,10.35
2022-08-05T20:38:20.268Z,10.93
2022-08-05T20:40:56.318Z,12.07
2022-08-05T20:43:33.404Z,11.65
2022-08-05T20:46:18.558Z,11.32
2022-08-05T20:48:51.974Z,11.98
2022-08-05T20:51:18.974Z,15.98
2022-08-05T20:53:55.256Z,11.18
2022-08-05T20:56:31.025Z,12.07
2022-08-05T20:59:13.891Z,12.70
2022-08-05T21:01:46.275Z,11.00
2022-08-05T21:04:14.206Z,14.13
2022-08-05T21:06:45.263Z,11.18
2022-08-05T21:09:14.248Z,12.93
2022-08-05T21:12:09.094Z,13.47
2022-08-05T21:14:31.453Z,12.30
2022-08-05T21:17:05.267Z,11.75
2022-08-05T21:19:46.390Z,12.82
2022-08-05T21:22:23.094Z,16.73
2022-08-05T21:24:52.412Z,14.80
2022-08-05T21:27:24.737Z,14.30
2022-08-05T21:29:55.437Z,14.02
2022-08-05T21:32:24.413Z,16.00
2022-08-05T21:34:55.838Z,13.80
2022-08-05T21:37:41.285Z,12.65
2022-08-05T21:40:13.722Z,14.13
2022-08-05T21:42:44.872Z,14.45
2022-08-05T21:45:24.622Z,14.02
2022-08-05T21:48:02.245Z,13.80
2022-08-05T21:50:33.456Z,14.60
2022-08-05T21:53:04.493Z,14.95
2022-08-05T21:56:01.737Z,14.10
2022-08-05T21:58:24.834Z,14.43
2022-08-05T22:00:58.823Z,14.77
2022-08-05T22:03:48.611Z,13.77
2022-08-05T22:06:12.726Z,13.25
2022-08-05T22:08:42.447Z,14.18
2022-08-05T22:11:15.705Z,14.50
2022-08-05T22:14:06.569Z,13.15
2022-08-05T22:16:42.064Z,14.70
2022-08-05T22:20:00.390Z,16.23
2022-08-05T22:22:04.649Z,17.23
2022-08-05T22:24:53.441Z,15.95
2022-08-05T22:28:09.336Z,14.48
2022-08-05T22:30:34.896Z,15.20
2022-08-05T22:33:02.507Z,13.82
2022-08-05T22:35:31.030Z,14.75
2022-08-05T22:38:05.785Z,15.35
2022-08-05T22:40:37.488Z,13.50
2022-08-05T22:43:05.402Z,14.70
2022-08-05T22:45:32.148Z,15.93
2022-08-05T22:47:59.727Z,13.77
2022-08-05T22:50:27.766Z,13.05
2022-08-05T22:52:55.511Z,14.77
2022-08-05T22:55:23.462Z,13.82
2022-08-05T22:57:51.998Z,15.70
2022-08-05T23:00:21.483Z,15.85
2022-08-05T23:02:50.554Z,16.25
2022-08-05T23:05:18.534Z,15.38
2022-08-05T23:07:49.555Z,14.15
2022-08-05T23:10:20.246Z,14.85
2022-08-05T23:12:54.712Z,15.65
2022-08-05T23:15:26.871Z,15.70
2022-08-05T23:18:01.700Z,16.45
2022-08-05T23:20:31.195Z,16.33
2022-08-05T23:22:59.087Z,15.10
2022-08-05T23:25:53.470Z,14.80
2022-08-05T23:28:12.848Z,14.77
2022-08-05T23:30:43.518Z,14.60
2022-08-05T23:33:22.057Z,13.57
2022-08-05T23:35:56.136Z,13.57
2022-08-05T23:38:24.557Z,15.00
2022-08-05T23:40:52.791Z,13.85
2022-08-05T23:43:25.091Z,14.55
2022-08-05T23:46:20.299Z,14.45
2022-08-05T23:48:59.943Z,15.85
2022-08-05T23:51:53.349Z,14.55
2022-08-05T23:54:29.878Z,14.63
2022-08-05T23:57:03.964Z,15.85
